VTBSVNKT

Guest
Details From VTBS - Bangkok Suvarnabhumi Intl
To VNKT - Kathmandu Tribhuvan Intl
Flight Number -
Tags Generated
Created
Modified
Stats Distance 1,203 nm / 2,228 km
Max Altitude 0 ft / 0 m
Waypoints 5
Social Downloads 2
Likes 0
Share VATSIM

Download

Looking for another format? Having issues loading an existing format? Contact us
Advertisement - Login to hide

Notes

Generated

Route

VTBS PA CTG30 KAM16 VNKT

ID Type Via Altitude Latitude Longitude Leg Dist Tot Dist Heading (true) Name
O VTBS APT - 0 ft / 0 m 13.70327˚ 100.74297˚ - 0 nm - -
PA NDB - 0 ft / 0 m 16.89300˚ 97.67467˚ 261 nm 261 nm 318° / 317° HPA AN NDB
CTG30 FIX - 0 ft / 0 m 22.29323˚ 91.86563˚ 461 nm 722 nm 316° / 314° -
KAM16 FIX - 0 ft / 0 m 27.67070˚ 85.36706˚ 478 nm 1201 nm 314° / 311° -
O VNKT APT - 0 ft / 0 m 27.68381˚ 85.35342˚ 1 nm 1202 nm 317° / 317° -

Altitude Profile

Advertisement - Login to hide

Weather


0- 5 10 15 20 25 30 35+ Temperature / ° C

Clouds and Precipitation
Forecast for 2017-12-16 12:00 UTC. Updated 2 hours ago

Ground ~20,000 ft ~40,000 ft Winds

VTBS

Details ICAO VTBS (BKK)
Name Bangkok Suvarnabhumi Intl
Region Thailand
Timezone Asia/Bangkok (UTC+7.0)
Stats Elevation 5 ft / 2 m (AMSL)
Location 13.680456° 100.747512°
Runways 2
Magnetic Variation 0.571° W

METAR

VTBS 160900Z 08010KT 050V120 9000 FEW020 32/18 Q1011 NOSIG

Decode

TAF

TAF VTBS 160500Z 1606/1712 08010KT 9999 FEW030 BECMG 1612/1614 04005KT CAVOK BECMG 1700/1702 06015KT BECMG 1708/1710 02010KT 9999 FEW040

Decode

Departure Runways

ID Width Length Bearing (true) Bearing (mag) Surface Threshold Offset Overrun Length
01L 200 ft / 61 m 12,194 ft / 3,717 m 14.26° 14.83° Asphalt 0 ft / 0 m 400 ft / 122 m
01R 200 ft / 61 m 13,181 ft / 4,018 m 14.19° 14.76° Asphalt 0 ft / 0 m 400 ft / 122 m
19L 200 ft / 61 m 13,181 ft / 4,018 m 194.19° 194.76° Asphalt 0 ft / 0 m 400 ft / 122 m
19R 200 ft / 61 m 12,194 ft / 3,717 m 194.26° 194.83° Asphalt 0 ft / 0 m 400 ft / 122 m

VNKT

Details ICAO VNKT (KTM)
Name Kathmandu Tribhuvan Intl
Region Nepal
Timezone Asia/Kathmandu (UTC+5.8)
Stats Elevation 4,390 ft / 1,338 m (AMSL)
Location 27.696583° 85.359100°
Runways 1
Magnetic Variation 0.492° E

METAR

VNKT 160920Z 28007KT 240V320 7000 FEW015 BKN250 19/01 Q1019 NOSIG

Decode

TAF

TAF VNKT 160500Z 1606/1706 13005KT 5000 HZ FEW010 BKN250 BECMG 1607/1608 28008KT 8000 FEW020 BKN250 BECMG 1614/1615 VRB02KT 6000 FEW015 BECMG 1700/1702 VRB02KT 4000 BR FEW015 PROB30 1701/1703 2000 BR FEW010 BECMG 1704/1705 13003KT 5000 HZ FEW015

Decode

Destination Runways

ID Width Length Bearing (true) Bearing (mag) Surface Threshold Offset Overrun Length
02 148 ft / 45 m 10,017 ft / 3,053 m 21.50° 21.01° Asphalt 0 ft / 0 m 0 ft / 0 m
20 148 ft / 45 m 10,017 ft / 3,053 m 201.51° 201.02° Asphalt 400 ft / 122 m 0 ft / 0 m

Popular Alternatives